Time;durP1;ratioP1;P1;durP2;ratioP2;P2;SDS_P1;SDS_P2;PMS_P1;PMS_P2;Temp;Humidity;BMP_temperature;BMP_pressure;BME280_temperature;BME280_humidity;BME280_pressure;Samples;Min_cycle;Max_cycle;Signal;HPM_P1;HPM_P2
2021/04/22 00:01:00;;;;;;;14.65;3.97;;;5.20;95.00;;;;;;5030239;28;20096;-68
2021/04/22 00:03:26;;;;;;;14.35;3.40;;;5.20;94.90;;;;;;5031231;28;20483;-68
2021/04/22 00:05:52;;;;;;;18.23;4.03;;;5.20;94.80;;;;;;5030898;28;20483;-68
2021/04/22 00:08:18;;;;;;;19.60;4.25;;;5.20;94.80;;;;;;5029705;28;20095;-68
2021/04/22 00:10:50;;;;;;;16.73;3.55;;;5.20;94.90;;;;;;5028899;28;20057;-68
2021/04/22 00:13:19;;;;;;;22.73;4.03;;;5.30;95.10;;;;;;5029808;28;20068;-68
2021/04/22 00:15:45;;;;;;;20.00;3.72;;;5.30;94.80;;;;;;5025586;28;20049;-68
2021/04/22 00:18:11;;;;;;;18.05;3.80;;;5.30;95.00;;;;;;5031944;28;20071;-68
2021/04/22 00:20:38;;;;;;;17.88;4.00;;;5.30;95.10;;;;;;5030448;28;20038;-67
2021/04/22 00:23:06;;;;;;;17.83;3.55;;;5.40;95.20;;;;;;5031217;28;20649;-67
2021/04/22 00:25:32;;;;;;;18.90;3.35;;;5.40;95.00;;;;;;5031264;28;20033;-67
2021/04/22 00:28:05;;;;;;;16.70;3.22;;;5.40;95.10;;;;;;5031757;28;20091;-68
2021/04/22 00:30:32;;;;;;;20.83;4.30;;;5.40;95.20;;;;;;5030853;28;20040;-68
2021/04/22 00:32:58;;;;;;;21.15;4.20;;;5.50;95.20;;;;;;5031367;28;20046;-67
2021/04/22 00:35:23;;;;;;;17.52;3.53;;;5.50;95.40;;;;;;5031299;28;20546;-67
2021/04/22 00:37:50;;;;;;;11.52;3.15;;;5.50;95.50;;;;;;5024899;28;20065;-68
2021/04/22 00:40:19;;;;;;;16.58;4.63;;;5.50;95.40;;;;;;5028247;28;20046;-68
2021/04/22 00:42:45;;;;;;;17.70;3.55;;;5.50;95.00;;;;;;5029611;28;20113;-68
2021/04/22 00:45:12;;;;;;;17.15;3.60;;;5.50;94.90;;;;;;5029170;28;20095;-67
2021/04/22 00:47:39;;;;;;;20.60;4.53;;;5.50;94.70;;;;;;5031092;28;20224;-68
2021/04/22 00:50:10;;;;;;;21.48;4.93;;;5.50;94.70;;;;;;5031142;28;20088;-67
2021/04/22 00:52:37;;;;;;;14.23;3.65;;;5.40;94.80;;;;;;5026170;28;20499;-67
2021/04/22 00:55:03;;;;;;;17.25;3.50;;;5.50;95.10;;;;;;5029069;28;20044;-68
2021/04/22 00:57:28;;;;;;;15.13;3.83;;;5.40;95.30;;;;;;5029935;28;20076;-67
2021/04/22 00:59:54;;;;;;;19.98;3.20;;;5.50;95.10;;;;;;5030913;28;20058;-67
2021/04/22 01:02:21;;;;;;;14.13;4.20;;;5.50;95.10;;;;;;5027802;28;20037;-68
2021/04/22 01:04:48;;;;;;;18.10;3.97;;;5.50;95.10;;;;;;5030458;28;20475;-68
2021/04/22 01:07:14;;;;;;;22.38;5.13;;;5.60;95.10;;;;;;5029843;28;20037;-67
2021/04/22 01:09:40;;;;;;;18.38;3.92;;;5.50;95.20;;;;;;5028551;28;20041;-67
2021/04/22 01:12:12;;;;;;;18.40;4.88;;;5.60;95.40;;;;;;5026961;28;20060;-68
2021/04/22 01:14:40;;;;;;;20.70;3.33;;;5.60;95.50;;;;;;5028825;28;20042;-68
2021/04/22 01:17:07;;;;;;;18.02;3.90;;;5.60;95.30;;;;;;5028500;28;20083;-67
2021/04/22 01:19:33;;;;;;;19.98;3.33;;;5.60;95.10;;;;;;5026878;28;20045;-68
2021/04/22 01:21:59;;;;;;;18.05;3.92;;;5.50;95.00;;;;;;5029914;28;20557;-68
2021/04/22 01:24:25;;;;;;;17.48;3.20;;;5.50;94.90;;;;;;5029510;28;20038;-67
2021/04/22 01:26:50;;;;;;;16.48;4.15;;;5.50;95.30;;;;;;5030407;28;20033;-67
2021/04/22 01:29:16;;;;;;;19.48;3.83;;;5.40;95.50;;;;;;5030564;28;20806;-68
2021/04/22 01:31:42;;;;;;;19.88;3.70;;;5.40;95.40;;;;;;5029505;28;20038;-68
2021/04/22 01:34:10;;;;;;;18.63;3.58;;;5.40;95.20;;;;;;5030278;28;20115;-68
2021/04/22 01:36:40;;;;;;;16.42;3.70;;;5.50;95.50;;;;;;5029768;28;20087;-68
2021/04/22 01:39:09;;;;;;;16.25;3.45;;;5.50;95.40;;;;;;5024922;28;20037;-68
2021/04/22 01:41:35;;;;;;;17.83;3.78;;;5.50;95.40;;;;;;5024169;28;20293;-68
2021/04/22 01:44:01;;;;;;;18.60;3.90;;;5.60;95.60;;;;;;5028301;28;20030;-67
2021/04/22 01:46:27;;;;;;;13.85;2.60;;;5.60;95.60;;;;;;5029963;28;20064;-67
2021/04/22 01:48:54;;;;;;;13.75;2.55;;;5.60;95.20;;;;;;5030041;28;20103;-67
2021/04/22 01:51:21;;;;;;;14.35;2.25;;;5.60;94.90;;;;;;5029108;28;20049;-67
2021/04/22 01:53:47;;;;;;;18.52;2.42;;;5.60;94.90;;;;;;5025545;28;20414;-67
2021/04/22 01:56:14;;;;;;;12.88;2.38;;;5.70;94.80;;;;;;5026970;28;20033;-67
2021/04/22 01:58:41;;;;;;;15.32;2.42;;;5.70;94.80;;;;;;5028205;28;20128;-67
2021/04/22 02:01:07;;;;;;;22.33;3.75;;;5.60;94.70;;;;;;5030093;28;20045;-67
2021/04/22 02:03:33;;;;;;;17.05;2.95;;;5.70;94.60;;;;;;5029246;28;20450;-67
2021/04/22 02:06:01;;;;;;;12.77;2.20;;;5.70;94.90;;;;;;5029536;28;20071;-67
2021/04/22 02:08:30;;;;;;;15.60;2.70;;;5.70;94.50;;;;;;5026120;28;20037;-67
2021/04/22 02:10:56;;;;;;;14.25;2.20;;;5.80;94.20;;;;;;5026615;28;20049;-67
2021/04/22 02:13:24;;;;;;;15.88;2.67;;;5.80;94.30;;;;;;5027528;28;20476;-67
2021/04/22 02:15:51;;;;;;;15.13;3.00;;;5.80;94.10;;;;;;5028378;28;20041;-68
2021/04/22 02:18:17;;;;;;;16.33;2.13;;;5.80;94.00;;;;;;5028164;28;20412;-67
2021/04/22 02:20:42;;;;;;;15.35;2.25;;;5.80;94.00;;;;;;5028818;28;20056;-67
2021/04/22 02:23:13;;;;;;;16.08;2.47;;;5.80;94.10;;;;;;5027602;28;20033;-68
2021/04/22 02:25:40;;;;;;;14.48;1.80;;;5.80;93.90;;;;;;5023521;28;20068;-68
2021/04/22 02:28:06;;;;;;;16.08;2.10;;;5.80;93.90;;;;;;5024442;28;20042;-67
2021/04/22 02:30:34;;;;;;;17.30;2.30;;;5.80;94.00;;;;;;5026216;28;20888;-68
2021/04/22 02:33:04;;;;;;;16.38;1.90;;;5.80;93.90;;;;;;5024942;28;20111;-67
2021/04/22 02:35:33;;;;;;;13.45;2.05;;;5.80;93.90;;;;;;5028121;28;20052;-68
2021/04/22 02:38:01;;;;;;;14.90;2.28;;;5.80;94.00;;;;;;5026377;28;20112;-68
2021/04/22 02:40:30;;;;;;;16.08;2.53;;;5.80;93.90;;;;;;5026182;28;20041;-68
2021/04/22 02:42:58;;;;;;;12.57;2.22;;;5.80;93.80;;;;;;5025007;28;20527;-68
2021/04/22 02:45:36;;;;;;;11.57;2.33;;;5.80;94.00;;;;;;5028258;28;20045;-68
2021/04/22 02:48:03;;;;;;;17.70;2.53;;;5.80;94.10;;;;;;5025631;28;20033;-68
2021/04/22 02:50:33;;;;;;;24.90;2.25;;;5.80;94.10;;;;;;5027327;28;20065;-68
2021/04/22 02:52:59;;;;;;;14.70;1.90;;;5.80;94.10;;;;;;5024658;28;20491;-67
2021/04/22 02:55:25;;;;;;;18.85;3.22;;;5.80;93.90;;;;;;5027097;28;20041;-68
2021/04/22 02:57:51;;;;;;;14.52;2.97;;;5.80;93.80;;;;;;5031529;28;20395;-68
2021/04/22 03:00:20;;;;;;;17.13;2.42;;;5.80;93.80;;;;;;5028636;28;20049;-68
2021/04/22 03:02:46;;;;;;;18.95;2.15;;;5.80;94.00;;;;;;5027489;28;20095;-68
2021/04/22 03:05:12;;;;;;;14.50;1.88;;;5.80;93.60;;;;;;5025187;28;20046;-68
2021/04/22 03:07:38;;;;;;;11.10;1.98;;;5.90;93.60;;;;;;5028588;28;20076;-67
2021/04/22 03:10:07;;;;;;;15.65;2.33;;;5.90;93.70;;;;;;5025549;28;20048;-67
2021/04/22 03:12:33;;;;;;;17.08;2.97;;;5.90;93.80;;;;;;5028523;28;20128;-68
2021/04/22 03:14:59;;;;;;;10.60;2.10;;;5.90;94.00;;;;;;5028537;28;20368;-67
2021/04/22 03:17:25;;;;;;;17.23;2.35;;;5.90;93.80;;;;;;5025574;28;20064;-67
2021/04/22 03:19:51;;;;;;;19.80;2.40;;;5.90;94.00;;;;;;5027262;28;20085;-68
2021/04/22 03:22:16;;;;;;;15.25;2.33;;;5.90;94.00;;;;;;5025224;28;20041;-67
2021/04/22 03:24:44;;;;;;;9.68;2.10;;;5.90;94.30;;;;;;5026740;28;20046;-67
2021/04/22 03:27:09;;;;;;;12.68;2.72;;;5.90;93.90;;;;;;5028164;28;20056;-67
2021/04/22 03:29:35;;;;;;;13.65;1.75;;;5.90;93.90;;;;;;5027064;28;21119;-68
2021/04/22 03:32:02;;;;;;;14.35;2.10;;;5.90;93.90;;;;;;5028773;28;20537;-67
2021/04/22 03:34:28;;;;;;;11.77;1.60;;;5.90;93.80;;;;;;5027083;28;20100;-67
2021/04/22 03:36:54;;;;;;;15.50;3.97;;;6.00;93.60;;;;;;5028856;28;20431;-67
2021/04/22 03:39:19;;;;;;;14.77;2.15;;;5.90;93.50;;;;;;5027014;28;20060;-67
2021/04/22 03:41:45;;;;;;;12.25;2.35;;;6.00;93.70;;;;;;5027839;28;20068;-67
2021/04/22 03:44:11;;;;;;;17.48;2.60;;;6.00;93.50;;;;;;5023582;28;20041;-67
2021/04/22 03:46:37;;;;;;;14.88;2.35;;;6.00;93.30;;;;;;5030984;28;20047;-67
2021/04/22 03:49:04;;;;;;;20.02;3.25;;;6.00;93.10;;;;;;5031329;28;20053;-67
2021/04/22 03:51:29;;;;;;;11.40;1.77;;;6.00;93.20;;;;;;5031313;28;20751;-67
2021/04/22 03:53:55;;;;;;;17.17;2.40;;;6.00;93.30;;;;;;5031961;28;20034;-67
2021/04/22 03:56:21;;;;;;;16.08;2.25;;;5.90;93.20;;;;;;5032221;28;20127;-67
2021/04/22 03:58:47;;;;;;;14.43;2.20;;;6.00;93.30;;;;;;5031275;28;20061;-68
2021/04/22 04:01:14;;;;;;;13.23;1.85;;;6.00;93.20;;;;;;5031528;28;20241;-68
2021/04/22 04:03:39;;;;;;;16.70;2.30;;;6.00;93.30;;;;;;5032309;28;20400;-67
2021/04/22 04:06:05;;;;;;;13.93;1.95;;;6.00;93.20;;;;;;5030775;28;20051;-67
2021/04/22 04:08:33;;;;;;;15.95;2.42;;;6.00;93.20;;;;;;5031408;28;20045;-67
2021/04/22 04:10:59;;;;;;;14.30;2.50;;;6.00;93.20;;;;;;5029608;28;20033;-67
2021/04/22 04:13:26;;;;;;;15.13;2.40;;;6.00;93.30;;;;;;5028577;28;20545;-67
2021/04/22 04:15:51;;;;;;;9.98;1.92;;;6.00;93.50;;;;;;5031752;28;20092;-67
2021/04/22 04:18:21;;;;;;;18.17;2.65;;;6.00;93.40;;;;;;5031420;28;20041;-67
2021/04/22 04:20:47;;;;;;;12.52;2.13;;;6.00;93.50;;;;;;5031816;28;20050;-67
2021/04/22 04:23:14;;;;;;;16.30;2.58;;;6.00;93.70;;;;;;5023876;28;20077;-67
2021/04/22 04:25:40;;;;;;;12.30;2.40;;;6.00;93.50;;;;;;5027249;28;20470;-67
2021/04/22 04:28:06;;;;;;;10.98;2.50;;;6.00;93.50;;;;;;5030472;28;20395;-67
2021/04/22 04:30:32;;;;;;;16.30;2.05;;;6.00;93.40;;;;;;5030958;28;20041;-67
2021/04/22 04:32:59;;;;;;;15.43;2.08;;;6.00;93.40;;;;;;5030864;28;20414;-67
2021/04/22 04:35:26;;;;;;;11.85;2.65;;;6.00;93.40;;;;;;5030069;28;20049;-67
2021/04/22 04:37:52;;;;;;;14.90;2.22;;;6.00;93.30;;;;;;5025533;28;20033;-67
2021/04/22 04:40:18;;;;;;;16.83;2.58;;;6.10;93.30;;;;;;5027461;28;20037;-68
2021/04/22 04:42:44;;;;;;;26.58;2.88;;;6.10;93.10;;;;;;5030406;28;20034;-68
2021/04/22 04:45:13;;;;;;;19.17;3.38;;;6.10;93.10;;;;;;5029439;28;20084;-68
2021/04/22 04:47:40;;;;;;;34.47;3.83;;;6.10;93.30;;;;;;5030787;28;20468;-67
2021/04/22 04:50:07;;;;;;;16.05;2.25;;;6.10;93.20;;;;;;5022484;28;20057;-67
2021/04/22 04:52:33;;;;;;;19.85;2.47;;;6.00;92.90;;;;;;5022155;28;20079;-67
2021/04/22 04:54:59;;;;;;;17.90;2.88;;;6.10;92.90;;;;;;5025900;28;20040;-68
2021/04/22 04:57:25;;;;;;;15.25;2.42;;;6.10;92.90;;;;;;5024912;28;20434;-67
2021/04/22 04:59:51;;;;;;;15.15;2.22;;;6.10;92.90;;;;;;5027541;28;20072;-68
2021/04/22 05:02:17;;;;;;;14.60;2.22;;;6.20;92.90;;;;;;5024758;28;20495;-68
2021/04/22 05:04:43;;;;;;;14.23;3.42;;;6.20;93.00;;;;;;5024208;28;20045;-68
2021/04/22 05:07:09;;;;;;;12.23;2.88;;;6.20;92.80;;;;;;5024689;28;20121;-68
2021/04/22 05:09:35;;;;;;;10.02;2.28;;;6.20;92.90;;;;;;5025013;28;20408;-68
2021/04/22 05:12:01;;;;;;;9.02;1.85;;;6.30;93.30;;;;;;5026610;28;20038;-67
2021/04/22 05:14:28;;;;;;;15.02;1.92;;;6.30;92.70;;;;;;5025947;28;20041;-67
2021/04/22 05:16:54;;;;;;;13.18;2.63;;;6.30;92.80;;;;;;5023479;28;20038;-67
2021/04/22 05:19:20;;;;;;;15.50;2.70;;;6.40;93.20;;;;;;5026874;28;20052;-68
2021/04/22 05:21:45;;;;;;;11.60;2.58;;;6.40;92.70;;;;;;5027997;28;20526;-68
2021/04/22 05:24:11;;;;;;;14.98;2.30;;;6.50;93.00;;;;;;5023213;28;20458;-68
2021/04/22 05:26:37;;;;;;;15.32;2.15;;;6.50;92.40;;;;;;5028338;28;20037;-67
2021/04/22 05:29:03;;;;;;;13.18;1.98;;;6.60;92.50;;;;;;5027445;28;20144;-67
2021/04/22 05:31:29;;;;;;;14.80;2.47;;;6.70;92.00;;;;;;5025121;28;20037;-67
2021/04/22 05:33:54;;;;;;;13.52;2.92;;;6.70;91.60;;;;;;5029502;28;20049;-68
2021/04/22 05:36:23;;;;;;;13.93;1.90;;;6.70;91.70;;;;;;5029246;28;20051;-68
2021/04/22 05:38:49;;;;;;;13.82;2.15;;;6.80;91.20;;;;;;5026518;28;20402;-68
2021/04/22 05:41:15;;;;;;;8.95;2.03;;;6.80;91.50;;;;;;5023031;28;20034;-67
2021/04/22 05:43:41;;;;;;;16.38;2.90;;;6.90;91.30;;;;;;5022418;28;20049;-67
2021/04/22 05:46:12;;;;;;;17.25;2.20;;;6.80;90.80;;;;;;5029520;28;20042;-67
2021/04/22 05:48:38;;;;;;;11.05;1.70;;;6.90;90.90;;;;;;5026074;28;20040;-67
2021/04/22 05:51:04;;;;;;;17.48;2.92;;;6.90;91.00;;;;;;5029510;28;20479;-68
2021/04/22 05:53:30;;;;;;;15.05;1.73;;;6.90;91.20;;;;;;5029369;28;20162;-68
2021/04/22 05:55:56;;;;;;;13.75;2.13;;;7.00;91.00;;;;;;5027895;28;20045;-68
2021/04/22 05:58:21;;;;;;;14.40;1.92;;;7.00;90.90;;;;;;5028171;28;20029;-67
2021/04/22 06:00:47;;;;;;;22.38;2.83;;;7.00;90.80;;;;;;5024890;28;20069;-69
2021/04/22 06:03:13;;;;;;;12.45;2.20;;;7.10;90.60;;;;;;5028368;28;20048;-68
2021/04/22 06:05:39;;;;;;;16.80;1.90;;;7.20;90.80;;;;;;5028257;28;20033;-69
2021/04/22 06:08:05;;;;;;;11.50;2.38;;;7.40;90.90;;;;;;5029171;28;20064;-69
2021/04/22 06:10:31;;;;;;;16.63;2.25;;;7.50;90.20;;;;;;5024740;28;20498;-68
2021/04/22 06:12:56;;;;;;;20.00;2.22;;;7.60;90.20;;;;;;5027168;28;20041;-68
2021/04/22 06:15:22;;;;;;;15.50;2.85;;;7.70;90.00;;;;;;5026040;28;20103;-69
2021/04/22 06:17:48;;;;;;;11.30;1.98;;;7.80;90.30;;;;;;5026873;28;20594;-68
2021/04/22 06:20:18;;;;;;;15.80;2.55;;;7.90;89.20;;;;;;5027795;28;20056;-69
2021/04/22 06:22:45;;;;;;;16.58;2.58;;;8.10;88.80;;;;;;5027399;28;20057;-68
2021/04/22 06:25:12;;;;;;;18.10;3.63;;;8.20;87.00;;;;;;5028077;28;20067;-68
2021/04/22 06:27:38;;;;;;;13.55;2.88;;;8.10;86.40;;;;;;5027522;28;20072;-69
2021/04/22 06:30:05;;;;;;;15.63;2.47;;;8.10;87.10;;;;;;5026375;28;20092;-69
2021/04/22 06:32:31;;;;;;;15.60;2.45;;;8.10;87.10;;;;;;5019633;28;20045;-69
2021/04/22 06:34:57;;;;;;;13.02;2.13;;;8.50;87.90;;;;;;5026589;28;21592;-69
2021/04/22 06:37:24;;;;;;;15.30;2.70;;;8.60;86.00;;;;;;5020756;28;20037;-69
2021/04/22 06:39:51;;;;;;;11.60;2.03;;;8.60;86.70;;;;;;5023413;28;20034;-69
2021/04/22 06:42:17;;;;;;;14.32;2.88;;;8.70;86.30;;;;;;5022173;28;20033;-69
2021/04/22 06:44:43;;;;;;;14.80;2.70;;;8.60;85.90;;;;;;5023588;28;20585;-68
2021/04/22 06:47:09;;;;;;;17.38;2.63;;;8.50;84.00;;;;;;5024993;28;20067;-69
2021/04/22 06:49:35;;;;;;;15.23;2.95;;;8.70;85.30;;;;;;5026002;28;20079;-69
2021/04/22 06:52:02;;;;;;;12.00;2.60;;;8.50;86.40;;;;;;5025963;28;20083;-69
2021/04/22 06:54:29;;;;;;;11.40;3.30;;;8.50;86.00;;;;;;5024845;28;20069;-69
2021/04/22 06:56:56;;;;;;;16.55;3.20;;;8.50;86.20;;;;;;5025686;28;20398;-69
2021/04/22 06:59:22;;;;;;;12.93;2.67;;;8.60;86.40;;;;;;5022007;28;20087;-69
2021/04/22 07:01:48;;;;;;;15.30;2.75;;;8.60;85.30;;;;;;5024572;28;20467;-68
2021/04/22 07:04:14;;;;;;;12.20;2.53;;;8.60;85.60;;;;;;5021353;28;20061;-69
2021/04/22 07:06:40;;;;;;;16.27;3.03;;;8.60;85.00;;;;;;5024314;28;20082;-69
2021/04/22 07:09:06;;;;;;;11.52;2.60;;;8.60;84.90;;;;;;5026433;28;20041;-68
2021/04/22 07:11:32;;;;;;;13.35;2.50;;;8.70;85.50;;;;;;5026730;28;20038;-68
2021/04/22 07:13:58;;;;;;;15.77;3.40;;;8.80;86.10;;;;;;5023676;28;20048;-69
2021/04/22 07:16:24;;;;;;;14.93;2.78;;;8.80;86.00;;;;;;5024711;28;20514;-68
2021/04/22 07:18:52;;;;;;;17.77;2.92;;;8.90;85.40;;;;;;5023511;28;20434;-68
2021/04/22 07:21:22;;;;;;;10.52;2.80;;;8.90;86.50;;;;;;5028793;28;20047;-69
2021/04/22 07:24:08;;;;;;;16.13;2.10;;;8.90;85.70;;;;;;5023267;28;20286;-69
2021/04/22 07:26:54;;;;;;;;;;;9.10;85.10;;;;;;5027501;28;20164;-71
2021/04/22 07:29:19;;;;;;;13.90;2.38;;;9.00;82.30;;;;;;5029856;28;20442;-69
2021/04/22 07:31:47;;;;;;;11.48;1.75;;;9.10;84.00;;;;;;5027669;28;20041;-69
2021/04/22 07:34:13;;;;;;;6.93;1.35;;;9.20;83.30;;;;;;5029936;28;20091;-69
2021/04/22 07:36:39;;;;;;;11.02;1.98;;;9.30;82.50;;;;;;5029640;28;20045;-69
2021/04/22 07:39:05;;;;;;;17.50;3.03;;;9.40;83.20;;;;;;5027379;28;20047;-69
2021/04/22 07:41:31;;;;;;;7.53;1.83;;;9.50;84.10;;;;;;5029994;28;20052;-69
2021/04/22 07:43:57;;;;;;;10.27;2.35;;;9.30;85.10;;;;;;5028120;28;20124;-69
2021/04/22 07:46:23;;;;;;;10.45;2.00;;;9.30;86.00;;;;;;5036920;28;20543;-69
2021/04/22 07:48:49;;;;;;;13.70;1.70;;;9.30;84.90;;;;;;5022262;28;20132;-69
2021/04/22 07:51:14;;;;;;;13.07;2.58;;;9.20;84.90;;;;;;5028067;28;20041;-69
2021/04/22 07:53:40;;;;;;;16.83;2.42;;;9.30;85.00;;;;;;5028510;28;20392;-69
2021/04/22 07:56:06;;;;;;;12.13;1.75;;;9.40;86.00;;;;;;5028966;28;21073;-69
2021/04/22 07:58:32;;;;;;;13.77;1.98;;;9.40;84.10;;;;;;5028135;28;20467;-69
2021/04/22 08:00:59;;;;;;;9.15;1.83;;;9.40;83.00;;;;;;5023967;28;20049;-68
2021/04/22 08:03:26;;;;;;;11.98;3.17;;;9.70;84.60;;;;;;5028811;28;20114;-69
2021/04/22 08:05:55;;;;;;;15.68;2.45;;;10.10;83.30;;;;;;5027265;28;20150;-69
2021/04/22 08:08:23;;;;;;;11.32;1.77;;;10.30;83.30;;;;;;5028622;28;20045;-69
2021/04/22 08:10:50;;;;;;;10.00;2.42;;;10.30;80.60;;;;;;5025179;28;20034;-69
2021/04/22 08:13:19;;;;;;;13.63;2.25;;;10.20;80.30;;;;;;5028986;28;20064;-69
2021/04/22 08:15:47;;;;;;;12.75;1.75;;;10.00;79.40;;;;;;5028121;28;20042;-69
2021/04/22 08:18:14;;;;;;;6.20;1.50;;;9.80;78.30;;;;;;5025632;28;20049;-69
2021/04/22 08:20:40;;;;;;;10.63;2.10;;;10.00;79.60;;;;;;5018555;28;20068;-69
2021/04/22 08:23:08;;;;;;;7.28;1.40;;;10.40;77.20;;;;;;5031404;28;20051;-69
2021/04/22 08:25:44;;;;;;;10.52;1.77;;;10.40;77.50;;;;;;5008530;28;20119;-69
2021/04/22 08:28:13;;;;;;;10.70;2.50;;;10.50;76.90;;;;;;5029103;28;20029;-69
2021/04/22 08:30:45;;;;;;;7.40;1.73;;;10.70;77.90;;;;;;5026786;28;20059;-69
2021/04/22 08:33:14;;;;;;;9.48;1.60;;;10.70;78.40;;;;;;5030052;28;20045;-69
2021/04/22 08:35:41;;;;;;;5.97;1.80;;;11.00;78.40;;;;;;5028948;28;20511;-69
2021/04/22 08:38:11;;;;;;;10.32;2.03;;;10.70;74.60;;;;;;5027669;28;20053;-70
2021/04/22 08:40:37;;;;;;;10.52;1.83;;;10.40;76.70;;;;;;5027585;28;20554;-69
2021/04/22 08:43:04;;;;;;;6.90;1.88;;;10.40;78.40;;;;;;5028380;28;20053;-69
2021/04/22 08:45:29;;;;;;;10.77;1.90;;;10.30;80.20;;;;;;5024582;28;20539;-69
2021/04/22 08:47:55;;;;;;;10.63;2.17;;;10.10;80.10;;;;;;5028373;28;20120;-69
2021/04/22 08:50:25;;;;;;;9.10;2.08;;;10.00;82.10;;;;;;5028486;28;20069;-69
2021/04/22 08:52:56;;;;;;;7.60;1.98;;;10.00;83.60;;;;;;5029452;28;21677;-69
2021/04/22 08:55:25;;;;;;;10.75;2.80;;;9.90;83.40;;;;;;5030331;28;20107;-69
2021/04/22 08:57:52;;;;;;;11.10;2.42;;;10.10;86.00;;;;;;5027818;28;20033;-69
2021/04/22 09:00:22;;;;;;;10.88;2.17;;;10.20;85.40;;;;;;5027550;28;20112;-69
2021/04/22 09:02:48;;;;;;;11.10;1.52;;;10.30;83.40;;;;;;5027404;28;20049;-69
2021/04/22 09:05:17;;;;;;;10.05;2.83;;;10.30;83.50;;;;;;5026840;28;20047;-69
2021/04/22 09:07:43;;;;;;;6.05;1.25;;;10.30;82.90;;;;;;5026992;28;20504;-69
2021/04/22 09:10:11;;;;;;;4.10;0.93;;;10.40;80.30;;;;;;5024841;28;20053;-69
2021/04/22 09:12:37;;;;;;;7.10;1.10;;;10.60;80.40;;;;;;5027247;28;20379;-69
2021/04/22 09:15:12;;;;;;;6.45;1.33;;;10.70;78.60;;;;;;5027014;28;20033;-70
2021/04/22 09:17:39;;;;;;;8.68;1.65;;;10.60;76.80;;;;;;5027654;28;20042;-69
2021/04/22 09:20:08;;;;;;;12.02;1.65;;;10.60;77.10;;;;;;5026777;28;20467;-69
2021/04/22 09:22:40;;;;;;;5.38;1.23;;;10.50;77.10;;;;;;5028661;28;20049;-70
2021/04/22 09:25:14;;;;;;;10.43;0.95;;;10.40;77.60;;;;;;5022794;28;20482;-69
2021/04/22 09:27:40;;;;;;;4.80;1.10;;;10.70;79.50;;;;;;5026722;28;20404;-69
2021/04/22 09:30:07;;;;;;;6.22;1.23;;;11.20;77.50;;;;;;5027125;28;20041;-69
2021/04/22 09:32:36;;;;;;;6.78;1.25;;;11.50;76.50;;;;;;5028167;28;20064;-69
2021/04/22 09:35:08;;;;;;;5.50;1.70;;;11.70;75.90;;;;;;5028973;28;20042;-70
2021/04/22 09:37:39;;;;;;;4.90;1.40;;;11.50;73.40;;;;;;5028796;28;20037;-69
2021/04/22 09:40:35;;;;;;;6.50;1.92;;;11.40;72.40;;;;;;5026670;28;20034;-69
2021/04/22 09:43:08;;;;;;;9.02;1.40;;;11.20;72.20;;;;;;5026257;28;20068;-69
2021/04/22 09:45:35;;;;;;;6.00;1.23;;;11.10;72.80;;;;;;5026709;28;20083;-69
2021/04/22 09:48:16;;;;;;;8.55;1.30;;;10.90;73.40;;;;;;5025026;28;20030;-70
2021/04/22 09:50:43;;;;;;;7.63;1.50;;;10.90;73.70;;;;;;5025503;28;20033;-69
2021/04/22 09:53:16;;;;;;;11.10;1.40;;;10.80;74.00;;;;;;5028101;28;20503;-69
2021/04/22 09:55:44;;;;;;;11.10;1.70;;;10.90;74.00;;;;;;5028192;28;20521;-69
2021/04/22 09:58:10;;;;;;;10.35;1.63;;;10.70;74.40;;;;;;5026200;28;20091;-69
2021/04/22 10:00:37;;;;;;;7.68;1.70;;;10.70;77.20;;;;;;5027009;28;20479;-69
2021/04/22 10:03:09;;;;;;;12.30;1.83;;;10.60;78.60;;;;;;5026653;28;20037;-69
2021/04/22 10:05:37;;;;;;;7.85;1.52;;;10.50;80.50;;;;;;5028522;28;20043;-69
2021/04/22 10:08:05;;;;;;;9.13;2.30;;;10.60;82.20;;;;;;5027207;28;20399;-69
2021/04/22 10:10:31;;;;;;;10.73;1.50;;;10.70;81.60;;;;;;5024723;28;20045;-69
2021/04/22 10:13:03;;;;;;;11.43;1.77;;;10.80;80.70;;;;;;5025792;28;20205;-69
2021/04/22 10:15:31;;;;;;;7.03;1.20;;;11.10;80.00;;;;;;5023748;28;20041;-69
2021/04/22 10:18:08;;;;;;;9.75;2.30;;;11.30;79.60;;;;;;5024540;28;20037;-69
2021/04/22 10:20:37;;;;;;;5.50;1.20;;;11.70;79.50;;;;;;5019443;28;20110;-70
2021/04/22 10:23:05;;;;;;;23.23;3.67;;;11.40;76.00;;;;;;5025386;28;20072;-69
2021/04/22 10:25:34;;;;;;;7.57;1.77;;;11.30;77.40;;;;;;5025579;28;20395;-69
2021/04/22 10:28:09;;;;;;;8.52;1.45;;;11.30;79.00;;;;;;5026680;28;20033;-70
2021/04/22 10:30:38;;;;;;;5.37;1.20;;;11.20;77.90;;;;;;5036647;28;20490;-69
2021/04/22 10:33:06;;;;;;;7.97;1.13;;;11.20;74.20;;;;;;5025752;28;20042;-69
2021/04/22 10:35:35;;;;;;;7.22;1.10;;;11.50;74.10;;;;;;5023437;28;20075;-69
2021/04/22 10:38:03;;;;;;;6.05;1.20;;;11.60;75.00;;;;;;5022150;28;20037;-69
2021/04/22 10:40:32;;;;;;;7.68;1.40;;;11.50;75.20;;;;;;5024852;28;20037;-69
2021/04/22 10:43:00;;;;;;;7.18;1.30;;;11.50;76.30;;;;;;5021638;28;20060;-69
2021/04/22 10:45:28;;;;;;;9.38;1.30;;;11.40;73.30;;;;;;5020709;28;20042;-69
2021/04/22 10:47:55;;;;;;;9.90;1.20;;;11.30;71.90;;;;;;5023731;28;20056;-69
2021/04/22 10:50:26;;;;;;;9.30;1.63;;;11.70;73.40;;;;;;5022797;28;20041;-69
2021/04/22 10:52:53;;;;;;;7.18;1.60;;;11.70;71.60;;;;;;5023124;28;20037;-69
2021/04/22 10:55:29;;;;;;;8.52;1.63;;;11.70;72.60;;;;;;5023297;28;20383;-70
2021/04/22 10:57:59;;;;;;;10.23;1.05;;;11.70;72.10;;;;;;5021179;28;20041;-70
2021/04/22 11:00:29;;;;;;;7.45;1.23;;;11.70;71.40;;;;;;5024702;28;20053;-70
2021/04/22 11:03:03;;;;;;;6.40;1.52;;;11.60;71.00;;;;;;5024086;28;20034;-69
2021/04/22 11:05:31;;;;;;;7.90;1.65;;;11.70;70.20;;;;;;5026150;28;20037;-70
2021/04/22 11:08:06;;;;;;;9.85;1.52;;;11.60;70.30;;;;;;5027371;28;20042;-69
2021/04/22 11:10:45;;;;;;;10.27;1.50;;;11.70;70.40;;;;;;5023968;28;20484;-69
2021/04/22 11:13:20;;;;;;;9.68;1.33;;;11.80;69.20;;;;;;5025225;28;20083;-70
2021/04/22 11:15:52;;;;;;;7.50;1.30;;;11.70;68.00;;;;;;5024323;28;20041;-69
2021/04/22 11:18:18;;;;;;;11.48;1.70;;;11.70;69.80;;;;;;5023200;28;20037;-69
2021/04/22 11:20:45;;;;;;;8.40;2.00;;;11.70;69.60;;;;;;5025381;28;20075;-69
2021/04/22 11:23:17;;;;;;;10.63;2.10;;;11.90;70.90;;;;;;5025358;28;20087;-69
2021/04/22 11:25:54;;;;;;;8.10;1.70;;;12.00;70.60;;;;;;5024225;28;20037;-69
2021/04/22 11:28:33;;;;;;;9.50;1.48;;;12.10;71.20;;;;;;5025363;28;20422;-69
2021/04/22 11:31:26;;;;;;;11.20;2.17;;;12.10;68.50;;;;;;5025985;28;20049;-69
2021/04/22 11:34:04;;;;;;;8.88;1.80;;;12.30;66.60;;;;;;5023458;28;20069;-70
2021/04/22 11:36:30;;;;;;;12.45;2.08;;;12.50;68.80;;;;;;5025748;28;20041;-69
2021/04/22 11:39:06;;;;;;;7.03;1.42;;;12.50;67.00;;;;;;5022430;28;20404;-70
2021/04/22 11:41:34;;;;;;;6.93;1.35;;;12.30;65.90;;;;;;5025525;28;20048;-69
2021/04/22 11:44:09;;;;;;;9.27;1.73;;;12.20;66.70;;;;;;5022779;28;20045;-69
2021/04/22 11:46:38;;;;;;;8.75;1.65;;;12.10;67.50;;;;;;5026652;28;20385;-70
2021/04/22 11:49:05;;;;;;;19.30;2.95;;;12.10;68.40;;;;;;5024853;28;20112;-70
2021/04/22 11:51:41;;;;;;;8.55;1.88;;;12.00;69.00;;;;;;5025114;28;20683;-70
2021/04/22 11:54:33;;;;;;;5.20;1.30;;;11.90;66.50;;;;;;5021669;28;20053;-70
2021/04/22 11:57:02;;;;;;;7.13;1.65;;;11.80;68.10;;;;;;5017605;28;20061;-70
2021/04/22 11:59:29;;;;;;;10.75;1.40;;;11.80;69.40;;;;;;5025427;28;20046;-69
2021/04/22 12:02:12;;;;;;;11.18;1.58;;;12.20;70.20;;;;;;5021369;28;20033;-70
2021/04/22 12:04:50;;;;;;;9.65;1.42;;;12.50;67.10;;;;;;5021118;28;20090;-70
2021/04/22 12:07:18;;;;;;;10.68;1.50;;;12.50;66.90;;;;;;5026268;28;20045;-70
2021/04/22 12:09:53;;;;;;;12.30;2.35;;;12.50;68.00;;;;;;5026800;28;20180;-70
2021/04/22 12:12:25;;;;;;;8.43;2.63;;;12.50;66.40;;;;;;5028285;28;20457;-70
2021/04/22 12:14:56;;;;;;;9.57;1.55;;;12.50;67.50;;;;;;5025577;28;20339;-70
2021/04/22 12:17:27;;;;;;;9.52;1.63;;;12.60;65.40;;;;;;5025990;28;20057;-70
2021/04/22 12:20:03;;;;;;;8.65;1.40;;;12.60;63.60;;;;;;5024798;28;21087;-70
2021/04/22 12:22:35;;;;;;;8.43;1.45;;;12.60;65.40;;;;;;5026868;28;20391;-69
2021/04/22 12:25:08;;;;;;;11.60;1.42;;;12.60;67.00;;;;;;5028107;28;20034;-69
2021/04/22 12:27:36;;;;;;;7.53;1.80;;;12.60;66.70;;;;;;5029092;28;20052;-69
2021/04/22 12:30:15;;;;;;;7.57;1.17;;;12.50;68.00;;;;;;5029942;28;20045;-69
2021/04/22 12:32:56;;;;;;;9.15;1.77;;;12.50;66.80;;;;;;5026659;28;20072;-70
2021/04/22 12:35:24;;;;;;;6.38;1.42;;;12.60;67.70;;;;;;5028978;28;20099;-70
2021/04/22 12:37:51;;;;;;;13.23;2.15;;;12.50;67.50;;;;;;5028331;28;20464;-70
2021/04/22 12:40:18;;;;;;;7.20;2.15;;;12.50;67.60;;;;;;5028630;28;20033;-70
2021/04/22 12:42:45;;;;;;;7.57;2.10;;;12.60;68.80;;;;;;5028882;28;20557;-70
2021/04/22 12:45:15;;;;;;;5.78;1.50;;;12.50;67.30;;;;;;5028467;28;20067;-69
2021/04/22 12:47:47;;;;;;;14.45;2.05;;;12.60;66.50;;;;;;5028709;28;20554;-70
2021/04/22 12:50:29;;;;;;;12.07;1.85;;;12.70;67.20;;;;;;5027721;28;20060;-70